createdAt,value
2019-03-31T00:01:47.475Z,23.53
2019-03-31T00:04:15.983Z,24.77
2019-03-31T00:06:44.459Z,24.57
2019-03-31T00:09:12.951Z,25.37
2019-03-31T00:11:41.539Z,25.57
2019-03-31T00:14:10.026Z,25.03
2019-03-31T00:16:38.578Z,25.23
2019-03-31T00:19:07.197Z,26.40
2019-03-31T00:21:35.756Z,25.77
2019-03-31T00:24:04.281Z,29.97
2019-03-31T00:26:32.822Z,28.83
2019-03-31T00:29:01.320Z,29.33
2019-03-31T00:31:29.818Z,30.27
2019-03-31T00:33:58.324Z,29.23
2019-03-31T00:36:26.793Z,27.23
2019-03-31T00:38:55.300Z,27.67
2019-03-31T00:41:23.771Z,28.97
2019-03-31T00:43:52.274Z,28.03
2019-03-31T00:46:20.768Z,30.00
2019-03-31T00:48:49.233Z,29.33
2019-03-31T00:51:17.749Z,28.40
2019-03-31T00:53:46.226Z,29.80
2019-03-31T00:56:14.741Z,30.03
2019-03-31T00:58:43.320Z,29.80
2019-03-31T01:01:14.144Z,31.20
2019-03-31T01:03:42.625Z,29.73
2019-03-31T01:06:12.733Z,31.43
2019-03-31T01:08:41.212Z,30.03
2019-03-31T01:11:12.776Z,28.87
2019-03-31T01:13:41.351Z,29.90
2019-03-31T01:16:12.662Z,30.67
2019-03-31T01:18:41.400Z,32.83
2019-03-31T01:21:10.055Z,30.13
2019-03-31T01:23:38.582Z,33.20
2019-03-31T01:26:07.464Z,37.70
2019-03-31T01:28:36.014Z,37.43
2019-03-31T01:31:04.658Z,35.47
2019-03-31T01:33:33.219Z,33.90
2019-03-31T01:36:01.728Z,32.60
2019-03-31T01:38:30.285Z,34.60
2019-03-31T01:40:58.800Z,34.87
2019-03-31T01:43:27.280Z,33.23
2019-03-31T01:45:55.961Z,33.37
2019-03-31T01:48:24.435Z,34.03
2019-03-31T01:50:52.937Z,33.57
2019-03-31T01:53:21.416Z,34.60
2019-03-31T01:55:49.987Z,32.67
2019-03-31T01:58:18.468Z,34.70
2019-03-31T02:00:54.207Z,35.33
2019-03-31T02:03:22.753Z,34.83
2019-03-31T02:05:51.405Z,34.10
2019-03-31T02:08:20.063Z,32.10
2019-03-31T02:10:48.583Z,31.67
2019-03-31T02:13:17.062Z,32.53
2019-03-31T02:15:45.575Z,32.43
2019-03-31T02:18:14.061Z,32.03
2019-03-31T02:20:42.564Z,31.90
2019-03-31T02:23:11.105Z,32.77
2019-03-31T02:25:39.614Z,29.80
2019-03-31T02:28:08.093Z,29.83
2019-03-31T02:30:36.600Z,30.57
2019-03-31T02:33:05.088Z,30.70
2019-03-31T02:35:33.579Z,30.27
2019-03-31T02:38:02.061Z,29.60
2019-03-31T02:40:30.641Z,30.17
2019-03-31T02:42:59.192Z,29.60
2019-03-31T02:45:27.690Z,29.50
2019-03-31T02:47:56.164Z,29.37
2019-03-31T02:50:36.686Z,28.63
2019-03-31T02:53:05.165Z,28.63
2019-03-31T02:55:33.739Z,28.97
2019-03-31T02:58:02.355Z,27.60
2019-03-31T03:00:32.059Z,26.70
2019-03-31T03:03:01.969Z,26.40
2019-03-31T03:05:32.458Z,28.47
2019-03-31T03:08:01.821Z,28.60
2019-03-31T03:10:31.996Z,27.57
2019-03-31T03:13:01.979Z,27.77
2019-03-31T03:15:32.576Z,27.10
2019-03-31T03:18:01.053Z,26.67
2019-03-31T03:20:29.554Z,27.00
2019-03-31T03:22:58.034Z,26.37
2019-03-31T03:25:26.540Z,27.13
2019-03-31T03:27:55.023Z,26.03
2019-03-31T03:30:23.625Z,24.77
2019-03-31T03:33:13.313Z,24.70
2019-03-31T03:35:22.484Z,24.50
2019-03-31T03:37:50.952Z,25.10
2019-03-31T03:40:19.456Z,25.63
2019-03-31T03:42:47.944Z,24.40
2019-03-31T03:45:16.447Z,25.67
2019-03-31T03:47:44.942Z,24.97
2019-03-31T03:50:13.427Z,24.60
2019-03-31T03:52:41.928Z,24.67
2019-03-31T03:55:10.547Z,24.50
2019-03-31T03:57:39.062Z,25.17
2019-03-31T04:00:09.116Z,24.60
2019-03-31T04:02:37.621Z,24.93
2019-03-31T04:05:06.741Z,24.70
2019-03-31T04:07:35.261Z,24.67
2019-03-31T04:10:06.777Z,24.53
2019-03-31T04:12:35.278Z,23.13
2019-03-31T04:15:03.823Z,23.53
2019-03-31T04:17:32.321Z,25.13
2019-03-31T04:20:00.826Z,24.23
2019-03-31T04:22:29.330Z,23.80
2019-03-31T04:24:57.811Z,23.77
2019-03-31T04:27:26.334Z,23.97
2019-03-31T04:29:54.793Z,22.30
2019-03-31T04:32:23.309Z,22.40
2019-03-31T04:34:51.794Z,21.90
2019-03-31T04:37:20.287Z,21.17
2019-03-31T04:39:48.780Z,22.97
2019-03-31T04:42:17.279Z,23.10
2019-03-31T04:44:45.758Z,22.50
2019-03-31T04:47:14.270Z,22.33
2019-03-31T04:49:42.754Z,21.73
2019-03-31T04:52:11.252Z,22.10
2019-03-31T04:54:39.729Z,21.67
2019-03-31T04:57:08.242Z,21.43
2019-03-31T04:59:36.727Z,21.83
2019-03-31T05:02:05.226Z,21.70
2019-03-31T05:04:33.708Z,21.27
2019-03-31T05:07:02.210Z,20.67
2019-03-31T05:09:30.686Z,19.97
2019-03-31T05:11:59.189Z,20.43
2019-03-31T05:14:27.669Z,20.73
2019-03-31T05:16:56.173Z,20.90
2019-03-31T05:19:24.653Z,20.80
2019-03-31T05:21:53.157Z,21.03
2019-03-31T05:24:21.640Z,20.33
2019-03-31T05:26:50.141Z,19.97
2019-03-31T05:29:18.619Z,20.90
2019-03-31T05:31:47.133Z,19.77
2019-03-31T05:34:19.212Z,21.33
2019-03-31T05:36:45.836Z,21.73
2019-03-31T05:39:14.311Z,21.43
2019-03-31T05:41:42.821Z,21.37
2019-03-31T05:44:11.300Z,21.80
2019-03-31T05:46:39.812Z,23.77
2019-03-31T05:49:08.290Z,23.00
2019-03-31T05:51:36.823Z,22.53
2019-03-31T05:54:05.295Z,22.80
2019-03-31T05:56:33.814Z,23.20
2019-03-31T05:59:02.291Z,22.27
2019-03-31T06:01:30.793Z,23.97
2019-03-31T06:03:59.275Z,23.60
2019-03-31T06:06:27.786Z,24.57
2019-03-31T06:08:56.265Z,24.23
2019-03-31T06:11:24.769Z,23.30
2019-03-31T06:13:53.245Z,24.50
2019-03-31T06:16:21.722Z,24.23
2019-03-31T06:18:50.226Z,23.93
2019-03-31T06:21:18.698Z,25.77
2019-03-31T06:23:47.202Z,25.50
2019-03-31T06:26:15.682Z,24.03
2019-03-31T06:28:44.194Z,23.57
2019-03-31T06:31:12.681Z,24.47
2019-03-31T06:33:41.186Z,24.87
2019-03-31T06:36:09.669Z,26.13
2019-03-31T06:38:38.183Z,24.53
2019-03-31T06:41:06.738Z,24.97
2019-03-31T06:43:35.243Z,25.53
2019-03-31T06:46:03.735Z,25.60
2019-03-31T06:48:32.238Z,26.87
2019-03-31T06:51:00.724Z,27.03
2019-03-31T06:53:29.232Z,26.43
2019-03-31T06:55:57.717Z,26.37
2019-03-31T06:58:26.214Z,26.30
2019-03-31T07:00:54.688Z,27.77
2019-03-31T07:03:23.197Z,26.73
2019-03-31T07:05:51.764Z,27.23
2019-03-31T07:08:20.259Z,27.60
2019-03-31T07:10:48.734Z,28.30
2019-03-31T07:13:17.249Z,28.73
2019-03-31T07:15:45.732Z,29.13
2019-03-31T07:18:15.981Z,27.73
2019-03-31T07:20:44.591Z,29.00
2019-03-31T07:23:13.099Z,28.53
2019-03-31T07:25:41.586Z,29.47
2019-03-31T07:28:10.110Z,28.77
2019-03-31T07:30:38.605Z,29.63
2019-03-31T07:33:07.119Z,29.27
2019-03-31T07:35:38.812Z,28.43
2019-03-31T07:38:05.851Z,30.07
2019-03-31T07:40:34.335Z,30.20
2019-03-31T07:43:02.900Z,30.90
2019-03-31T07:45:31.405Z,30.90
2019-03-31T07:47:59.904Z,30.53
2019-03-31T07:50:28.535Z,31.43
2019-03-31T07:52:57.072Z,31.37
2019-03-31T07:55:25.560Z,31.80
2019-03-31T07:57:54.699Z,32.27
2019-03-31T08:00:25.476Z,31.37
2019-03-31T08:02:54.069Z,31.10
2019-03-31T08:05:33.030Z,33.40
2019-03-31T08:07:52.773Z,35.60
2019-03-31T08:10:21.492Z,34.67
2019-03-31T08:12:50.000Z,33.93
2019-03-31T08:15:19.050Z,37.37
2019-03-31T08:17:47.560Z,36.63
2019-03-31T08:20:18.636Z,35.97
2019-03-31T08:22:47.418Z,35.43
2019-03-31T08:25:16.740Z,37.00
2019-03-31T08:27:45.250Z,36.23
2019-03-31T08:30:15.085Z,35.50
2019-03-31T08:32:43.596Z,35.23
2019-03-31T08:35:13.618Z,35.90
2019-03-31T08:37:42.117Z,36.00
2019-03-31T08:40:11.844Z,34.03
2019-03-31T08:42:40.361Z,34.65
2019-03-31T08:45:10.119Z,36.17
2019-03-31T08:47:38.895Z,35.83
2019-03-31T08:50:08.234Z,34.33
2019-03-31T08:52:36.801Z,33.37
2019-03-31T08:55:06.429Z,34.10
2019-03-31T08:57:35.151Z,33.00
2019-03-31T09:00:05.303Z,30.65
2019-03-31T09:02:34.969Z,29.27
2019-03-31T09:05:04.705Z,31.62
2019-03-31T09:07:33.181Z,30.37
2019-03-31T09:10:01.769Z,30.57
2019-03-31T09:12:30.245Z,31.55
2019-03-31T09:14:58.753Z,30.68
2019-03-31T09:17:27.234Z,34.63
2019-03-31T09:19:55.812Z,31.45
2019-03-31T09:22:24.303Z,33.02
2019-03-31T09:24:52.817Z,30.97
2019-03-31T09:27:21.376Z,32.08
2019-03-31T09:29:49.892Z,30.00
2019-03-31T09:32:18.384Z,30.32
2019-03-31T09:34:46.971Z,31.73
2019-03-31T09:37:15.447Z,30.05
2019-03-31T09:39:43.962Z,30.95
2019-03-31T09:42:12.440Z,31.12
2019-03-31T09:44:40.955Z,31.02
2019-03-31T09:47:09.438Z,30.32
2019-03-31T09:49:37.943Z,29.92
2019-03-31T09:52:06.426Z,30.72
2019-03-31T09:54:34.932Z,32.38
2019-03-31T09:57:03.589Z,31.95
2019-03-31T09:59:32.090Z,30.50
2019-03-31T10:02:00.572Z,29.32
2019-03-31T10:04:29.075Z,28.90
2019-03-31T10:06:57.823Z,28.50
2019-03-31T10:09:26.407Z,31.52
2019-03-31T10:11:54.891Z,30.10
2019-03-31T10:14:23.396Z,29.57
2019-03-31T10:16:51.878Z,32.78
2019-03-31T10:19:20.391Z,32.38
2019-03-31T10:21:48.879Z,33.30
2019-03-31T10:24:17.390Z,33.45
2019-03-31T10:26:45.878Z,32.28
2019-03-31T10:29:14.386Z,32.60
2019-03-31T10:31:43.239Z,33.33
2019-03-31T10:34:11.753Z,32.42
2019-03-31T10:36:44.767Z,34.05
2019-03-31T10:39:10.544Z,33.27
2019-03-31T10:41:39.023Z,36.70
2019-03-31T10:44:07.535Z,34.20
2019-03-31T10:46:36.074Z,35.45
2019-03-31T10:49:04.722Z,35.45
2019-03-31T10:51:33.284Z,37.13
2019-03-31T10:54:04.472Z,37.23
2019-03-31T10:56:31.999Z,37.33
2019-03-31T10:59:00.503Z,37.75
2019-03-31T11:01:28.985Z,35.68
2019-03-31T11:03:57.565Z,34.98
2019-03-31T11:06:26.047Z,35.75
2019-03-31T11:08:54.635Z,37.23
2019-03-31T11:11:23.113Z,36.23
2019-03-31T11:13:51.619Z,35.00
2019-03-31T11:16:20.104Z,37.17
2019-03-31T11:18:48.603Z,34.83
2019-03-31T11:21:24.450Z,34.88
2019-03-31T11:23:52.954Z,34.83
2019-03-31T11:26:21.437Z,36.35
2019-03-31T11:28:49.950Z,36.93
2019-03-31T11:31:18.442Z,37.45
2019-03-31T11:33:46.919Z,35.15
2019-03-31T11:36:15.427Z,30.72
2019-03-31T11:38:43.906Z,33.57
2019-03-31T11:41:12.419Z,33.83
2019-03-31T11:43:40.893Z,35.23
2019-03-31T11:46:09.403Z,34.30
2019-03-31T11:48:37.959Z,37.00
2019-03-31T11:51:06.464Z,34.18
2019-03-31T11:53:34.942Z,34.50
2019-03-31T11:56:03.442Z,35.13
2019-03-31T11:58:32.461Z,34.00
2019-03-31T12:01:01.106Z,35.40
2019-03-31T12:03:31.141Z,36.80
2019-03-31T12:05:59.970Z,36.70
2019-03-31T12:08:28.521Z,37.00
2019-03-31T12:10:57.030Z,38.78
2019-03-31T12:13:25.509Z,38.07
2019-03-31T12:15:54.018Z,37.42
2019-03-31T12:18:22.496Z,37.20
2019-03-31T12:20:51.016Z,37.03
2019-03-31T12:23:19.486Z,40.60
2019-03-31T12:25:47.993Z,37.88
2019-03-31T12:28:16.474Z,38.10
2019-03-31T12:30:44.999Z,38.50
2019-03-31T12:33:13.478Z,36.68
2019-03-31T12:35:41.984Z,36.93
2019-03-31T12:38:10.528Z,39.05
2019-03-31T12:40:39.384Z,38.90
2019-03-31T12:43:07.934Z,36.60
2019-03-31T12:45:36.450Z,36.70
2019-03-31T12:48:05.069Z,37.83
2019-03-31T12:50:33.581Z,37.95
2019-03-31T12:53:02.061Z,36.75
2019-03-31T12:55:30.571Z,37.93
2019-03-31T12:57:59.054Z,37.58
2019-03-31T13:00:27.577Z,36.47
2019-03-31T13:02:56.114Z,36.10
2019-03-31T13:05:24.621Z,37.70
2019-03-31T13:07:56.608Z,35.23
2019-03-31T13:10:23.330Z,34.60
2019-03-31T13:12:51.810Z,35.57
2019-03-31T13:15:20.314Z,35.80
2019-03-31T13:17:48.803Z,35.55
2019-03-31T13:20:17.644Z,35.98
2019-03-31T13:22:46.995Z,35.10
2019-03-31T13:25:15.496Z,33.85
2019-03-31T13:27:43.977Z,31.65
2019-03-31T13:30:12.545Z,28.80
2019-03-31T13:32:41.021Z,29.97
2019-03-31T13:35:09.986Z,28.73
2019-03-31T13:37:38.453Z,26.73
2019-03-31T13:40:08.023Z,26.97
2019-03-31T13:42:36.575Z,27.42
2019-03-31T13:45:08.342Z,26.95
2019-03-31T13:47:36.829Z,27.22
2019-03-31T13:50:09.478Z,27.07
2019-03-31T13:52:38.021Z,28.12
2019-03-31T13:55:10.311Z,28.77
2019-03-31T13:57:40.033Z,24.82
2019-03-31T14:00:11.181Z,25.08
2019-03-31T14:02:40.526Z,24.20
2019-03-31T14:05:09.574Z,25.85
2019-03-31T14:07:38.052Z,24.92
2019-03-31T14:10:08.000Z,24.30
2019-03-31T14:12:36.477Z,24.20
2019-03-31T14:15:18.900Z,25.50
2019-03-31T14:17:38.474Z,25.80
2019-03-31T14:20:07.589Z,24.45
2019-03-31T14:22:36.097Z,22.98
2019-03-31T14:25:06.223Z,23.43
2019-03-31T14:27:34.725Z,23.53
2019-03-31T14:30:05.152Z,21.30
2019-03-31T14:32:33.663Z,23.18
2019-03-31T14:35:02.150Z,23.00
2019-03-31T14:37:30.663Z,20.80
2019-03-31T14:39:59.150Z,20.20
2019-03-31T14:42:27.672Z,17.95
2019-03-31T14:44:56.217Z,17.00
2019-03-31T14:47:24.721Z,16.87
2019-03-31T14:49:53.208Z,16.87
2019-03-31T14:52:27.471Z,16.80
2019-03-31T14:54:51.927Z,16.87
2019-03-31T14:57:20.430Z,16.67
2019-03-31T14:59:48.911Z,16.90
2019-03-31T15:02:17.419Z,20.67
2019-03-31T15:04:45.897Z,17.17
2019-03-31T15:07:14.407Z,16.77
2019-03-31T15:09:42.887Z,16.57
2019-03-31T15:12:11.385Z,16.40
2019-03-31T15:14:39.950Z,17.00
2019-03-31T15:17:08.471Z,17.23
2019-03-31T15:19:36.948Z,18.40
2019-03-31T15:22:05.453Z,16.95
2019-03-31T15:24:33.937Z,18.40
2019-03-31T15:27:02.444Z,15.10
2019-03-31T15:29:30.934Z,15.87
2019-03-31T15:31:59.428Z,18.90
2019-03-31T15:34:27.907Z,18.37
2019-03-31T15:36:56.415Z,16.00
2019-03-31T15:39:24.908Z,14.47
2019-03-31T15:41:53.410Z,16.13
2019-03-31T15:44:21.895Z,16.27
2019-03-31T15:46:50.405Z,16.97
2019-03-31T15:49:18.890Z,16.67
2019-03-31T15:51:47.391Z,15.57
2019-03-31T15:54:17.449Z,14.73
2019-03-31T15:56:46.031Z,15.03
2019-03-31T15:59:14.510Z,15.03
2019-03-31T16:01:43.089Z,14.50
2019-03-31T16:04:11.625Z,14.17
2019-03-31T16:06:40.098Z,13.13
2019-03-31T16:09:22.368Z,13.97
2019-03-31T16:11:52.875Z,13.60
2019-03-31T16:14:09.154Z,12.30
2019-03-31T16:16:37.652Z,14.03
2019-03-31T16:19:06.130Z,13.43
2019-03-31T16:21:34.639Z,13.67
2019-03-31T16:24:03.119Z,13.67
2019-03-31T16:26:31.626Z,13.43
2019-03-31T16:29:00.108Z,13.80
2019-03-31T16:31:28.661Z,13.57
2019-03-31T16:33:57.145Z,13.53
2019-03-31T16:36:25.656Z,12.47
2019-03-31T16:38:54.144Z,12.90
2019-03-31T16:41:22.641Z,12.90
2019-03-31T16:43:51.121Z,12.53
2019-03-31T16:46:19.642Z,11.20
2019-03-31T16:48:48.126Z,12.50
2019-03-31T16:51:16.612Z,11.97
2019-03-31T16:53:45.198Z,16.73
2019-03-31T16:56:13.678Z,11.53
2019-03-31T16:58:42.180Z,10.43
2019-03-31T17:01:10.662Z,10.80
2019-03-31T17:03:39.174Z,11.30
2019-03-31T17:06:07.655Z,11.07
2019-03-31T17:08:36.161Z,11.10
2019-03-31T17:11:05.589Z,11.53
2019-03-31T17:13:34.309Z,10.70
2019-03-31T17:16:02.859Z,10.87
2019-03-31T17:18:31.379Z,11.03
2019-03-31T17:20:59.872Z,15.90
2019-03-31T17:23:28.376Z,11.80
2019-03-31T17:25:56.856Z,12.83
2019-03-31T17:28:25.365Z,12.37
2019-03-31T17:30:53.845Z,12.10
2019-03-31T17:33:22.346Z,12.70
2019-03-31T17:35:50.820Z,12.10
2019-03-31T17:38:19.319Z,13.40
2019-03-31T17:40:47.798Z,12.90
2019-03-31T17:43:16.311Z,13.37
2019-03-31T17:45:44.788Z,12.43
2019-03-31T17:48:13.300Z,12.27
2019-03-31T17:50:41.777Z,13.37
2019-03-31T17:53:10.272Z,13.60
2019-03-31T17:55:38.749Z,13.60
2019-03-31T17:58:07.256Z,13.17
2019-03-31T18:00:35.736Z,13.13
2019-03-31T18:03:04.314Z,12.13
2019-03-31T18:05:32.791Z,12.67
2019-03-31T18:08:01.295Z,12.50
2019-03-31T18:10:29.781Z,12.90
2019-03-31T18:12:58.284Z,11.83
2019-03-31T18:15:26.759Z,12.57
2019-03-31T18:17:55.271Z,13.03
2019-03-31T18:20:23.752Z,12.70
2019-03-31T18:22:52.258Z,13.63
2019-03-31T18:25:20.754Z,12.70
2019-03-31T18:27:49.265Z,12.93
2019-03-31T18:30:18.183Z,14.47
2019-03-31T18:32:46.688Z,13.57
2019-03-31T18:35:16.937Z,18.03
2019-03-31T18:37:45.401Z,14.33
2019-03-31T18:40:14.039Z,13.17
2019-03-31T18:42:42.553Z,13.73
2019-03-31T18:45:11.176Z,14.53
2019-03-31T18:47:39.700Z,15.83
2019-03-31T18:50:08.448Z,14.60
2019-03-31T18:52:36.952Z,13.73
2019-03-31T18:55:24.370Z,14.07
2019-03-31T18:57:54.524Z,12.80
2019-03-31T19:00:24.656Z,13.03
2019-03-31T19:03:06.779Z,12.37
2019-03-31T19:05:53.917Z,12.90
2019-03-31T19:08:36.105Z,12.37
2019-03-31T19:11:15.544Z,13.60
2019-03-31T19:13:55.871Z,13.97
2019-03-31T19:16:35.305Z,13.60
2019-03-31T19:19:06.066Z,15.70
2019-03-31T19:21:52.712Z,14.60
2019-03-31T19:24:38.700Z,14.73
2019-03-31T19:27:14.567Z,17.50
2019-03-31T19:29:59.712Z,18.30
2019-03-31T19:32:38.948Z,17.93
2019-03-31T19:35:21.520Z,19.17
2019-03-31T19:37:54.637Z,18.40
2019-03-31T19:40:41.528Z,18.00
2019-03-31T19:43:18.151Z,19.17
2019-03-31T19:45:53.949Z,19.03
2019-03-31T19:48:40.809Z,17.87
2019-03-31T19:51:19.772Z,18.17
2019-03-31T19:53:59.368Z,17.77
2019-03-31T19:56:29.515Z,17.80
2019-03-31T19:59:15.863Z,18.43
2019-03-31T20:02:04.147Z,16.07
2019-03-31T20:04:34.290Z,16.20
2019-03-31T20:07:07.507Z,17.07
2019-03-31T20:09:53.850Z,16.23
2019-03-31T20:12:26.433Z,15.00
2019-03-31T20:15:13.449Z,14.53
2019-03-31T20:17:43.903Z,14.10
2019-03-31T20:20:19.821Z,12.83
2019-03-31T20:23:01.995Z,12.60
2019-03-31T20:25:32.296Z,13.73
2019-03-31T20:28:02.820Z,13.23
2019-03-31T20:30:41.774Z,12.87
2019-03-31T20:33:28.069Z,13.90
2019-03-31T20:36:14.064Z,12.17
2019-03-31T20:38:44.209Z,13.80
2019-03-31T20:41:32.540Z,13.50
2019-03-31T20:44:01.282Z,14.83
2019-03-31T20:46:29.760Z,14.47
2019-03-31T20:48:58.257Z,13.60
2019-03-31T20:51:26.735Z,11.87
2019-03-31T20:53:55.251Z,13.23
2019-03-31T20:56:23.747Z,13.03
2019-03-31T20:58:52.440Z,13.93
2019-03-31T21:01:20.914Z,13.77
2019-03-31T21:03:49.423Z,12.63
2019-03-31T21:06:17.962Z,12.37
2019-03-31T21:08:46.759Z,12.97
2019-03-31T21:11:15.242Z,13.50
2019-03-31T21:13:44.059Z,12.83
2019-03-31T21:16:12.535Z,10.30
2019-03-31T21:18:41.043Z,10.03
2019-03-31T21:21:09.515Z,8.03
2019-03-31T21:23:38.015Z,8.10
2019-03-31T21:26:06.494Z,7.47
2019-03-31T21:28:35.005Z,7.93
2019-03-31T21:31:03.473Z,7.03
2019-03-31T21:33:31.962Z,7.10
2019-03-31T21:36:00.432Z,8.20
2019-03-31T21:38:28.911Z,8.33
2019-03-31T21:40:57.414Z,9.20
2019-03-31T21:43:25.886Z,8.40
2019-03-31T21:45:54.381Z,8.80
2019-03-31T21:48:22.855Z,8.83
2019-03-31T21:50:51.347Z,8.47
2019-03-31T21:53:19.907Z,8.47
2019-03-31T21:55:48.405Z,7.90
2019-03-31T21:58:16.873Z,7.53
2019-03-31T22:00:55.584Z,7.97
2019-03-31T22:03:24.054Z,7.27
2019-03-31T22:05:52.692Z,7.17
2019-03-31T22:08:21.160Z,7.33
2019-03-31T22:10:49.660Z,6.53
2019-03-31T22:13:18.134Z,6.90
2019-03-31T22:15:47.041Z,6.60
2019-03-31T22:18:15.829Z,6.63
2019-03-31T22:20:47.331Z,6.00
2019-03-31T22:23:14.664Z,6.77
2019-03-31T22:25:43.173Z,6.10
2019-03-31T22:28:11.646Z,6.63
2019-03-31T22:30:40.136Z,5.47
2019-03-31T22:33:08.617Z,6.17
2019-03-31T22:35:37.113Z,6.40
2019-03-31T22:38:05.589Z,7.40
2019-03-31T22:40:34.097Z,6.37
2019-03-31T22:43:02.567Z,7.13
2019-03-31T22:45:31.070Z,7.30
2019-03-31T22:47:59.545Z,6.73
2019-03-31T22:50:28.048Z,7.13
2019-03-31T22:52:56.520Z,7.20
2019-03-31T22:55:25.015Z,7.10
2019-03-31T22:57:53.488Z,7.30
2019-03-31T23:00:23.767Z,7.70
2019-03-31T23:02:52.236Z,7.27
2019-03-31T23:05:20.741Z,7.00
2019-03-31T23:07:49.210Z,6.97
2019-03-31T23:10:17.707Z,8.00
2019-03-31T23:12:46.180Z,7.20
2019-03-31T23:15:14.749Z,8.27
2019-03-31T23:17:43.220Z,7.23
2019-03-31T23:20:11.726Z,7.23
2019-03-31T23:22:40.184Z,7.00
2019-03-31T23:25:08.754Z,6.40
2019-03-31T23:27:37.226Z,6.67
2019-03-31T23:30:09.008Z,7.20
2019-03-31T23:32:37.546Z,7.53
2019-03-31T23:35:07.385Z,6.17
2019-03-31T23:37:35.864Z,6.50
2019-03-31T23:40:05.001Z,6.63
2019-03-31T23:42:33.812Z,6.37
2019-03-31T23:45:02.377Z,6.30
2019-03-31T23:47:30.850Z,5.67
2019-03-31T23:49:59.349Z,6.20
2019-03-31T23:52:27.823Z,5.90
2019-03-31T23:54:56.322Z,5.97
2019-03-31T23:57:41.660Z,5.47
